Etusivu
METAR-TAF:

METAR-TAF

Lentoasemat :

Lamoni Municipal Airport

Lamoni, Iowa, Yhdysvallat

Leveyspiiri: 40-37-50N, Pituuspiiri: 093-54-03W, korkeus merenpinnasta: 344 m

Tämänhetkinen sää

Tämä raportti tehtiin 15 minuuttia sitten, kello 08.53 UTC
Tuuli 12 kn pohjoisen/luoteesta puuskistuen 21 kn:hen
Lämpötila -2°C
Kosteus 80%
Ilmanpaine 1020 hPa
Näkyvyys: 16.1 km
Hajonneita pilviä 1600 ft:n korkeudessa

METAR: KLWD 180853Z AUTO 33012G21KT 10SM BKN016 M02/M05 A3011 RMK AO2 PK WND 32028/0805 SLP206 T10221050 50017

Aika: 03:08 (09:08 UTC)


TAF: puuttuu

Säähavainnot ja -ennusteet yli 4000 lentoasemalta (METAR- ja TAF-raportit).

Käytössä olevat sääasemat on merkitty karttaan keltaisilla ja punaisilla pisteillä.

Aseta hiiri pisteen päälle nähdäksesi sääaseman nimen.

Klikkaa sitten nähdäksesi säähavainnot ja -ennusteet.

Kartan vaihtaminen: klikkaa mustalla rastilla varustettuja vihreitä pisteitä, niin voit zoomata sisään; viivalla varustettua vihreää pistettä, niin voit zoomata ulos tai vihreitä nuolia, niin pääset viereisille kartoille.


METAR-TAF: